sensor_id;sensor_type;location;lat;lon;timestamp;pressure;altitude;pressure_sealevel;temperature;humidity
39411;BME280;26579;43.238;23.124;2023-02-03T00:00:14;97275.09;;;6.29;43.22
39411;BME280;26579;43.238;23.124;2023-02-03T00:02:40;97282.03;;;6.28;43.31
39411;BME280;26579;43.238;23.124;2023-02-03T00:05:06;97273.75;;;6.07;43.50
39411;BME280;26579;43.238;23.124;2023-02-03T00:07:32;97290.75;;;6.11;43.17
39411;BME280;26579;43.238;23.124;2023-02-03T00:09:58;97293.72;;;6.20;43.05
39411;BME280;26579;43.238;23.124;2023-02-03T00:12:24;97295.38;;;6.21;43.11
39411;BME280;26579;43.238;23.124;2023-02-03T00:14:49;97295.22;;;6.24;42.80
39411;BME280;26579;43.238;23.124;2023-02-03T00:17:15;97286.69;;;6.22;43.19
39411;BME280;26579;43.238;23.124;2023-02-03T00:19:41;97285.22;;;6.18;46.26
39411;BME280;26579;43.238;23.124;2023-02-03T00:22:07;97287.41;;;6.09;42.68
39411;BME280;26579;43.238;23.124;2023-02-03T00:24:32;97290.41;;;6.18;43.68
39411;BME280;26579;43.238;23.124;2023-02-03T00:26:58;97294.00;;;6.15;44.78
39411;BME280;26579;43.238;23.124;2023-02-03T00:29:23;97304.41;;;6.13;44.21
39411;BME280;26579;43.238;23.124;2023-02-03T00:31:49;97296.00;;;6.10;44.42
39411;BME280;26579;43.238;23.124;2023-02-03T00:34:15;97307.09;;;6.12;44.96
39411;BME280;26579;43.238;23.124;2023-02-03T00:36:40;97308.94;;;6.10;45.52
39411;BME280;26579;43.238;23.124;2023-02-03T00:39:06;97296.19;;;6.07;43.55
39411;BME280;26579;43.238;23.124;2023-02-03T00:41:32;97298.59;;;6.10;42.57
39411;BME280;26579;43.238;23.124;2023-02-03T00:43:58;97291.59;;;6.12;42.46
39411;BME280;26579;43.238;23.124;2023-02-03T00:46:23;97275.31;;;6.10;43.27
39411;BME280;26579;43.238;23.124;2023-02-03T00:48:49;97288.59;;;6.04;42.89
39411;BME280;26579;43.238;23.124;2023-02-03T00:51:15;97297.75;;;6.09;42.72
39411;BME280;26579;43.238;23.124;2023-02-03T00:53:40;97302.63;;;6.00;43.04
39411;BME280;26579;43.238;23.124;2023-02-03T00:56:06;97298.56;;;5.96;43.30
39411;BME280;26579;43.238;23.124;2023-02-03T00:58:32;97284.38;;;6.03;42.52
39411;BME280;26579;43.238;23.124;2023-02-03T01:00:57;97266.03;;;5.92;43.20
39411;BME280;26579;43.238;23.124;2023-02-03T01:03:24;97244.13;;;5.83;42.68
39411;BME280;26579;43.238;23.124;2023-02-03T01:05:49;97276.63;;;6.03;42.27
39411;BME280;26579;43.238;23.124;2023-02-03T01:08:15;97275.88;;;6.01;42.87
39411;BME280;26579;43.238;23.124;2023-02-03T01:10:41;97276.88;;;5.98;42.66
39411;BME280;26579;43.238;23.124;2023-02-03T01:13:06;97276.53;;;5.88;43.26
39411;BME280;26579;43.238;23.124;2023-02-03T01:15:32;97303.94;;;6.07;42.32
39411;BME280;26579;43.238;23.124;2023-02-03T01:17:58;97287.69;;;6.05;41.61
39411;BME280;26579;43.238;23.124;2023-02-03T01:20:23;97288.34;;;6.08;42.27
39411;BME280;26579;43.238;23.124;2023-02-03T01:22:49;97272.34;;;6.02;41.95
39411;BME280;26579;43.238;23.124;2023-02-03T01:25:15;97280.41;;;6.11;42.24
39411;BME280;26579;43.238;23.124;2023-02-03T01:27:41;97287.53;;;6.08;43.87
39411;BME280;26579;43.238;23.124;2023-02-03T01:30:07;97302.28;;;6.06;41.65
39411;BME280;26579;43.238;23.124;2023-02-03T01:32:33;97305.69;;;6.06;41.51
39411;BME280;26579;43.238;23.124;2023-02-03T01:34:58;97278.84;;;6.09;40.95
39411;BME280;26579;43.238;23.124;2023-02-03T01:37:24;97290.13;;;6.08;40.95
39411;BME280;26579;43.238;23.124;2023-02-03T01:39:50;97299.59;;;6.07;42.02
39411;BME280;26579;43.238;23.124;2023-02-03T01:42:16;97296.28;;;6.05;41.63
39411;BME280;26579;43.238;23.124;2023-02-03T01:44:49;97299.47;;;5.95;42.17
39411;BME280;26579;43.238;23.124;2023-02-03T01:52:41;97293.31;;;5.81;42.57
39411;BME280;26579;43.238;23.124;2023-02-03T01:55:11;97305.16;;;5.85;42.78
39411;BME280;26579;43.238;23.124;2023-02-03T01:58:00;97311.78;;;5.89;42.90
39411;BME280;26579;43.238;23.124;2023-02-03T02:00:27;97307.63;;;5.87;42.64
39411;BME280;26579;43.238;23.124;2023-02-03T02:02:54;97289.66;;;5.85;41.41
39411;BME280;26579;43.238;23.124;2023-02-03T02:05:30;97310.56;;;5.97;40.95
39411;BME280;26579;43.238;23.124;2023-02-03T02:07:59;97307.44;;;6.06;41.52
39411;BME280;26579;43.238;23.124;2023-02-03T02:10:29;97302.81;;;5.97;42.02
39411;BME280;26579;43.238;23.124;2023-02-03T02:12:56;97315.28;;;6.04;41.24
39411;BME280;26579;43.238;23.124;2023-02-03T02:15:26;97311.69;;;6.07;40.34
39411;BME280;26579;43.238;23.124;2023-02-03T02:29:57;97316.69;;;6.10;44.27
39411;BME280;26579;43.238;23.124;2023-02-03T02:33:01;97311.63;;;5.93;46.20
39411;BME280;26579;43.238;23.124;2023-02-03T02:35:53;97319.53;;;5.89;44.82
39411;BME280;26579;43.238;23.124;2023-02-03T02:41:06;97308.63;;;6.00;42.25
39411;BME280;26579;43.238;23.124;2023-02-03T02:43:40;97310.03;;;6.06;40.95
39411;BME280;26579;43.238;23.124;2023-02-03T02:46:32;97318.16;;;6.00;42.84
39411;BME280;26579;43.238;23.124;2023-02-03T02:49:10;97324.03;;;6.02;44.34
39411;BME280;26579;43.238;23.124;2023-02-03T02:51:38;97312.78;;;5.87;45.04
39411;BME280;26579;43.238;23.124;2023-02-03T02:54:07;97340.31;;;5.88;46.16
39411;BME280;26579;43.238;23.124;2023-02-03T02:56:38;97345.84;;;5.82;46.48
39411;BME280;26579;43.238;23.124;2023-02-03T02:59:05;97358.00;;;5.80;44.58
39411;BME280;26579;43.238;23.124;2023-02-03T03:01:32;97338.16;;;5.80;42.42
39411;BME280;26579;43.238;23.124;2023-02-03T03:04:00;97363.16;;;5.96;42.52
39411;BME280;26579;43.238;23.124;2023-02-03T03:06:32;97337.84;;;5.71;40.49
39411;BME280;26579;43.238;23.124;2023-02-03T03:09:04;97360.41;;;5.67;42.44
39411;BME280;26579;43.238;23.124;2023-02-03T03:11:39;97348.25;;;5.69;41.59
39411;BME280;26579;43.238;23.124;2023-02-03T03:14:07;97360.00;;;5.75;42.04
39411;BME280;26579;43.238;23.124;2023-02-03T03:16:36;97372.84;;;5.76;41.99
39411;BME280;26579;43.238;23.124;2023-02-03T03:19:12;97371.91;;;5.77;42.35
39411;BME280;26579;43.238;23.124;2023-02-03T03:21:44;97354.53;;;5.65;43.41
39411;BME280;26579;43.238;23.124;2023-02-03T03:24:16;97336.28;;;5.68;42.25
39411;BME280;26579;43.238;23.124;2023-02-03T03:26:52;97371.50;;;5.85;44.95
39411;BME280;26579;43.238;23.124;2023-02-03T03:29:25;97377.34;;;5.88;42.67
39411;BME280;26579;43.238;23.124;2023-02-03T03:31:55;97360.84;;;5.75;43.67
39411;BME280;26579;43.238;23.124;2023-02-03T03:34:21;97372.81;;;5.92;42.50
39411;BME280;26579;43.238;23.124;2023-02-03T03:36:53;97343.03;;;5.55;41.95
39411;BME280;26579;43.238;23.124;2023-02-03T03:39:36;97371.75;;;5.80;43.81
39411;BME280;26579;43.238;23.124;2023-02-03T03:44:56;97357.41;;;5.90;43.66
39411;BME280;26579;43.238;23.124;2023-02-03T03:49:54;97364.31;;;5.90;46.56
39411;BME280;26579;43.238;23.124;2023-02-03T03:52:25;97373.69;;;5.77;44.20
39411;BME280;26579;43.238;23.124;2023-02-03T03:54:53;97360.59;;;5.80;45.61
39411;BME280;26579;43.238;23.124;2023-02-03T03:57:27;97365.28;;;5.73;43.37
39411;BME280;26579;43.238;23.124;2023-02-03T03:59:55;97370.44;;;5.73;46.27
39411;BME280;26579;43.238;23.124;2023-02-03T04:02:21;97362.81;;;5.70;44.34
39411;BME280;26579;43.238;23.124;2023-02-03T04:04:48;97373.16;;;5.70;44.67
39411;BME280;26579;43.238;23.124;2023-02-03T04:07:15;97362.28;;;5.65;46.75
39411;BME280;26579;43.238;23.124;2023-02-03T04:09:41;97371.25;;;5.58;44.02
39411;BME280;26579;43.238;23.124;2023-02-03T04:12:12;97391.84;;;5.59;45.29
39411;BME280;26579;43.238;23.124;2023-02-03T04:14:40;97386.41;;;5.64;46.56
39411;BME280;26579;43.238;23.124;2023-02-03T04:17:07;97376.94;;;5.49;46.22
39411;BME280;26579;43.238;23.124;2023-02-03T04:19:33;97378.69;;;5.48;46.57
39411;BME280;26579;43.238;23.124;2023-02-03T04:21:58;97378.16;;;5.26;46.98
39411;BME280;26579;43.238;23.124;2023-02-03T04:24:24;97382.16;;;5.15;47.33
39411;BME280;26579;43.238;23.124;2023-02-03T04:26:50;97388.75;;;5.21;47.95
39411;BME280;26579;43.238;23.124;2023-02-03T04:29:16;97386.50;;;5.15;47.51
39411;BME280;26579;43.238;23.124;2023-02-03T04:31:41;97388.00;;;5.19;48.06
39411;BME280;26579;43.238;23.124;2023-02-03T04:34:07;97378.94;;;4.94;48.17
39411;BME280;26579;43.238;23.124;2023-02-03T04:36:33;97392.50;;;5.15;48.00
39411;BME280;26579;43.238;23.124;2023-02-03T04:38:58;97376.97;;;4.99;48.34
39411;BME280;26579;43.238;23.124;2023-02-03T04:41:24;97380.78;;;4.92;48.13
39411;BME280;26579;43.238;23.124;2023-02-03T04:43:50;97381.47;;;4.96;47.94
39411;BME280;26579;43.238;23.124;2023-02-03T04:46:16;97395.03;;;4.99;48.40
39411;BME280;26579;43.238;23.124;2023-02-03T04:48:41;97392.09;;;4.90;47.78
39411;BME280;26579;43.238;23.124;2023-02-03T04:51:07;97401.28;;;4.95;48.47
39411;BME280;26579;43.238;23.124;2023-02-03T04:53:34;97401.03;;;5.00;49.07
39411;BME280;26579;43.238;23.124;2023-02-03T04:56:00;97410.97;;;5.08;49.75
39411;BME280;26579;43.238;23.124;2023-02-03T04:58:25;97418.50;;;4.95;49.33
39411;BME280;26579;43.238;23.124;2023-02-03T05:00:52;97424.88;;;4.88;49.24
39411;BME280;26579;43.238;23.124;2023-02-03T05:03:18;97418.53;;;4.78;48.84
39411;BME280;26579;43.238;23.124;2023-02-03T05:05:44;97434.84;;;4.78;49.11
39411;BME280;26579;43.238;23.124;2023-02-03T05:08:10;97442.66;;;4.76;49.12
39411;BME280;26579;43.238;23.124;2023-02-03T05:10:36;97446.16;;;4.75;49.50
39411;BME280;26579;43.238;23.124;2023-02-03T05:13:02;97452.66;;;4.65;50.09
39411;BME280;26579;43.238;23.124;2023-02-03T05:15:27;97454.88;;;4.56;50.47
39411;BME280;26579;43.238;23.124;2023-02-03T05:17:54;97451.53;;;4.53;50.69
39411;BME280;26579;43.238;23.124;2023-02-03T05:20:20;97457.16;;;4.44;51.17
39411;BME280;26579;43.238;23.124;2023-02-03T05:22:46;97446.22;;;4.39;50.77
39411;BME280;26579;43.238;23.124;2023-02-03T05:25:12;97466.94;;;4.38;51.37
39411;BME280;26579;43.238;23.124;2023-02-03T05:27:38;97479.66;;;4.41;51.04
39411;BME280;26579;43.238;23.124;2023-02-03T05:30:06;97469.16;;;4.45;51.01
39411;BME280;26579;43.238;23.124;2023-02-03T05:32:32;97471.94;;;4.41;51.43
39411;BME280;26579;43.238;23.124;2023-02-03T05:34:57;97480.34;;;4.44;51.32
39411;BME280;26579;43.238;23.124;2023-02-03T05:37:23;97481.41;;;4.40;51.28
39411;BME280;26579;43.238;23.124;2023-02-03T05:39:49;97472.44;;;4.30;50.46
39411;BME280;26579;43.238;23.124;2023-02-03T05:42:14;97491.59;;;4.43;50.05
39411;BME280;26579;43.238;23.124;2023-02-03T05:44:40;97471.09;;;4.23;51.16
39411;BME280;26579;43.238;23.124;2023-02-03T05:47:06;97489.97;;;4.23;51.81
39411;BME280;26579;43.238;23.124;2023-02-03T05:49:31;97498.03;;;4.16;51.87
39411;BME280;26579;43.238;23.124;2023-02-03T05:51:57;97480.66;;;4.02;51.12
39411;BME280;26579;43.238;23.124;2023-02-03T05:54:23;97481.66;;;3.99;51.65
39411;BME280;26579;43.238;23.124;2023-02-03T05:56:49;97486.94;;;3.96;50.92
39411;BME280;26579;43.238;23.124;2023-02-03T05:59:15;97492.00;;;3.98;51.85
39411;BME280;26579;43.238;23.124;2023-02-03T06:01:41;97511.59;;;4.02;51.59
39411;BME280;26579;43.238;23.124;2023-02-03T06:04:06;97510.03;;;3.98;51.60
39411;BME280;26579;43.238;23.124;2023-02-03T06:06:32;97509.28;;;3.77;52.95
39411;BME280;26579;43.238;23.124;2023-02-03T06:09:03;97529.56;;;3.84;52.43
39411;BME280;26579;43.238;23.124;2023-02-03T06:11:29;97515.84;;;3.84;52.30
39411;BME280;26579;43.238;23.124;2023-02-03T06:13:55;97517.44;;;3.86;52.06
39411;BME280;26579;43.238;23.124;2023-02-03T06:16:21;97534.28;;;3.94;52.39
39411;BME280;26579;43.238;23.124;2023-02-03T06:18:47;97533.59;;;3.90;52.87
39411;BME280;26579;43.238;23.124;2023-02-03T06:21:12;97522.72;;;3.83;52.65
39411;BME280;26579;43.238;23.124;2023-02-03T06:23:40;97509.56;;;3.90;51.95
39411;BME280;26579;43.238;23.124;2023-02-03T06:26:06;97524.53;;;4.00;52.60
39411;BME280;26579;43.238;23.124;2023-02-03T06:28:31;97523.06;;;4.14;53.38
39411;BME280;26579;43.238;23.124;2023-02-03T06:30:57;97518.81;;;4.13;53.41
39411;BME280;26579;43.238;23.124;2023-02-03T06:33:23;97495.00;;;4.07;51.92
39411;BME280;26579;43.238;23.124;2023-02-03T06:35:48;97502.75;;;4.07;52.33
39411;BME280;26579;43.238;23.124;2023-02-03T06:38:14;97523.56;;;4.22;52.41
39411;BME280;26579;43.238;23.124;2023-02-03T06:40:40;97525.50;;;4.17;52.02
39411;BME280;26579;43.238;23.124;2023-02-03T06:43:05;97527.28;;;4.34;50.36
39411;BME280;26579;43.238;23.124;2023-02-03T06:45:31;97525.81;;;5.16;48.76
39411;BME280;26579;43.238;23.124;2023-02-03T06:47:59;97518.50;;;6.69;44.93
39411;BME280;26579;43.238;23.124;2023-02-03T06:50:25;97522.50;;;8.32;41.38
39411;BME280;26579;43.238;23.124;2023-02-03T06:52:50;97529.75;;;8.68;40.22
39411;BME280;26579;43.238;23.124;2023-02-03T06:55:16;97523.00;;;9.31;38.44
39411;BME280;26579;43.238;23.124;2023-02-03T06:57:44;97519.66;;;9.29;38.60
39411;BME280;26579;43.238;23.124;2023-02-03T07:00:10;97548.53;;;8.72;40.02
39411;BME280;26579;43.238;23.124;2023-02-03T07:02:36;97553.50;;;8.62;40.01
39411;BME280;26579;43.238;23.124;2023-02-03T07:05:02;97533.78;;;8.18;39.87
39411;BME280;26579;43.238;23.124;2023-02-03T07:07:27;97554.31;;;8.63;38.98
39411;BME280;26579;43.238;23.124;2023-02-03T07:09:53;97548.41;;;9.13;38.59
39411;BME280;26579;43.238;23.124;2023-02-03T07:12:19;97557.50;;;9.46;38.21
39411;BME280;26579;43.238;23.124;2023-02-03T07:14:44;97565.84;;;8.98;38.45
39411;BME280;26579;43.238;23.124;2023-02-03T07:17:10;97568.31;;;9.78;37.12
39411;BME280;26579;43.238;23.124;2023-02-03T07:19:36;97567.53;;;10.99;34.82
39411;BME280;26579;43.238;23.124;2023-02-03T07:22:01;97561.50;;;10.14;36.99
39411;BME280;26579;43.238;23.124;2023-02-03T07:24:27;97563.63;;;9.32;38.89
39411;BME280;26579;43.238;23.124;2023-02-03T07:26:53;97563.78;;;9.03;38.12
39411;BME280;26579;43.238;23.124;2023-02-03T07:29:18;97550.91;;;8.62;38.14
39411;BME280;26579;43.238;23.124;2023-02-03T07:31:44;97569.19;;;8.46;38.48
39411;BME280;26579;43.238;23.124;2023-02-03T07:34:10;97558.47;;;8.38;38.64
39411;BME280;26579;43.238;23.124;2023-02-03T07:36:35;97567.34;;;8.75;38.12
39411;BME280;26579;43.238;23.124;2023-02-03T07:39:01;97572.47;;;9.42;36.48
39411;BME280;26579;43.238;23.124;2023-02-03T07:41:27;97567.31;;;10.17;35.48
39411;BME280;26579;43.238;23.124;2023-02-03T07:43:52;97561.78;;;11.07;33.80
39411;BME280;26579;43.238;23.124;2023-02-03T07:46:18;97559.28;;;11.63;32.98
39411;BME280;26579;43.238;23.124;2023-02-03T07:48:44;97566.72;;;11.45;33.72
39411;BME280;26579;43.238;23.124;2023-02-03T07:51:10;97567.41;;;12.28;32.86
39411;BME280;26579;43.238;23.124;2023-02-03T07:53:35;97574.09;;;13.28;30.96
39411;BME280;26579;43.238;23.124;2023-02-03T07:56:03;97576.13;;;13.67;29.40
39411;BME280;26579;43.238;23.124;2023-02-03T07:58:30;97555.97;;;14.19;29.14
39411;BME280;26579;43.238;23.124;2023-02-03T08:00:56;97574.34;;;13.98;28.71
39411;BME280;26579;43.238;23.124;2023-02-03T08:03:22;97579.47;;;12.95;29.97
39411;BME280;26579;43.238;23.124;2023-02-03T08:05:48;97581.59;;;13.22;29.91
39411;BME280;26579;43.238;23.124;2023-02-03T08:08:14;97581.19;;;13.58;29.62
39411;BME280;26579;43.238;23.124;2023-02-03T08:10:39;97575.25;;;14.18;27.88
39411;BME280;26579;43.238;23.124;2023-02-03T08:13:05;97568.22;;;14.18;27.91
39411;BME280;26579;43.238;23.124;2023-02-03T08:15:31;97564.66;;;13.89;28.26
39411;BME280;26579;43.238;23.124;2023-02-03T08:17:59;97570.13;;;13.76;28.02
39411;BME280;26579;43.238;23.124;2023-02-03T08:20:25;97570.00;;;14.08;27.76
39411;BME280;26579;43.238;23.124;2023-02-03T08:22:52;97566.50;;;14.38;27.52
39411;BME280;26579;43.238;23.124;2023-02-03T08:25:17;97570.31;;;15.43;25.51
39411;BME280;26579;43.238;23.124;2023-02-03T08:27:46;97561.09;;;16.50;24.15
39411;BME280;26579;43.238;23.124;2023-02-03T08:30:13;97571.13;;;17.62;22.34
39411;BME280;26579;43.238;23.124;2023-02-03T08:32:42;97565.66;;;18.42;21.59
39411;BME280;26579;43.238;23.124;2023-02-03T08:35:10;97577.38;;;19.31;20.54
39411;BME280;26579;43.238;23.124;2023-02-03T08:37:43;97562.19;;;19.58;19.50
39411;BME280;26579;43.238;23.124;2023-02-03T08:40:11;97556.66;;;20.48;18.74
39411;BME280;26579;43.238;23.124;2023-02-03T08:42:42;97562.16;;;19.90;18.96
39411;BME280;26579;43.238;23.124;2023-02-03T08:45:08;97564.38;;;20.66;18.47
39411;BME280;26579;43.238;23.124;2023-02-03T08:47:36;97564.88;;;22.35;17.22
39411;BME280;26579;43.238;23.124;2023-02-03T08:50:04;97557.94;;;22.34;16.42
39411;BME280;26579;43.238;23.124;2023-02-03T08:52:30;97561.84;;;24.17;16.32
39411;BME280;26579;43.238;23.124;2023-02-03T08:54:57;97553.56;;;24.81;14.55
39411;BME280;26579;43.238;23.124;2023-02-03T08:57:23;97544.41;;;25.64;14.00
39411;BME280;26579;43.238;23.124;2023-02-03T08:59:48;97554.19;;;24.42;13.53
39411;BME280;26579;43.238;23.124;2023-02-03T09:02:16;97548.94;;;25.50;13.21
39411;BME280;26579;43.238;23.124;2023-02-03T09:04:45;97548.94;;;25.63;12.59
39411;BME280;26579;43.238;23.124;2023-02-03T09:07:12;97535.75;;;26.08;12.55
39411;BME280;26579;43.238;23.124;2023-02-03T09:09:38;97536.03;;;26.45;12.17
39411;BME280;26579;43.238;23.124;2023-02-03T09:12:06;97533.44;;;26.25;12.07
39411;BME280;26579;43.238;23.124;2023-02-03T09:14:35;97539.59;;;26.26;11.74
39411;BME280;26579;43.238;23.124;2023-02-03T09:17:04;97529.88;;;25.26;13.06
39411;BME280;26579;43.238;23.124;2023-02-03T09:19:30;97537.41;;;25.96;12.51
39411;BME280;26579;43.238;23.124;2023-02-03T09:21:59;97540.25;;;26.66;11.87
39411;BME280;26579;43.238;23.124;2023-02-03T09:24:25;97534.25;;;26.77;11.80
39411;BME280;26579;43.238;23.124;2023-02-03T09:26:50;97532.22;;;26.73;11.47
39411;BME280;26579;43.238;23.124;2023-02-03T09:29:16;97535.78;;;26.60;11.76
39411;BME280;26579;43.238;23.124;2023-02-03T09:31:42;97544.06;;;27.22;11.34
39411;BME280;26579;43.238;23.124;2023-02-03T09:34:08;97537.44;;;26.54;11.30
39411;BME280;26579;43.238;23.124;2023-02-03T09:36:35;97536.81;;;26.97;11.67
39411;BME280;26579;43.238;23.124;2023-02-03T09:39:01;97544.06;;;27.47;11.14
39411;BME280;26579;43.238;23.124;2023-02-03T09:46:42;97545.03;;;25.26;12.44
39411;BME280;26579;43.238;23.124;2023-02-03T09:49:32;97527.34;;;23.11;12.95
39411;BME280;26579;43.238;23.124;2023-02-03T09:52:09;97535.44;;;21.71;15.11
39411;BME280;26579;43.238;23.124;2023-02-03T09:57:06;97524.50;;;20.90;15.49
39411;BME280;26579;43.238;23.124;2023-02-03T09:59:38;97524.03;;;20.87;15.26
39411;BME280;26579;43.238;23.124;2023-02-03T10:02:16;97510.78;;;20.32;16.08
39411;BME280;26579;43.238;23.124;2023-02-03T10:05:10;97521.81;;;21.59;15.64
39411;BME280;26579;43.238;23.124;2023-02-03T10:13:07;97502.50;;;17.56;18.94
39411;BME280;26579;43.238;23.124;2023-02-03T10:18:18;97494.00;;;18.39;17.65
39411;BME280;26579;43.238;23.124;2023-02-03T10:20:57;97495.34;;;18.08;16.68
39411;BME280;26579;43.238;23.124;2023-02-03T10:23:32;97504.63;;;18.21;17.07
39411;BME280;26579;43.238;23.124;2023-02-03T10:26:04;97502.34;;;17.83;18.45
39411;BME280;26579;43.238;23.124;2023-02-03T10:28:38;97498.81;;;18.60;17.22
39411;BME280;26579;43.238;23.124;2023-02-03T10:31:16;97492.78;;;19.00;16.06
39411;BME280;26579;43.238;23.124;2023-02-03T10:33:42;97493.75;;;19.32;17.07
39411;BME280;26579;43.238;23.124;2023-02-03T10:36:21;97490.44;;;19.38;17.41
39411;BME280;26579;43.238;23.124;2023-02-03T10:41:20;97491.03;;;18.50;16.00
39411;BME280;26579;43.238;23.124;2023-02-03T10:43:48;97486.38;;;18.27;16.14
39411;BME280;26579;43.238;23.124;2023-02-03T10:46:17;97470.91;;;17.82;16.39
39411;BME280;26579;43.238;23.124;2023-02-03T10:48:43;97481.06;;;17.51;16.70
39411;BME280;26579;43.238;23.124;2023-02-03T10:51:22;97481.16;;;17.15;17.23
39411;BME280;26579;43.238;23.124;2023-02-03T10:53:49;97491.38;;;17.18;16.88
39411;BME280;26579;43.238;23.124;2023-02-03T10:56:16;97485.94;;;16.75;17.63
39411;BME280;26579;43.238;23.124;2023-02-03T11:01:18;97472.94;;;16.38;17.32
39411;BME280;26579;43.238;23.124;2023-02-03T11:03:57;97486.63;;;16.14;17.36
39411;BME280;26579;43.238;23.124;2023-02-03T11:06:23;97487.63;;;15.76;17.44
39411;BME280;26579;43.238;23.124;2023-02-03T11:08:49;97487.88;;;15.45;17.46
39411;BME280;26579;43.238;23.124;2023-02-03T11:11:21;97450.00;;;15.01;17.91
39411;BME280;26579;43.238;23.124;2023-02-03T11:13:52;97469.19;;;14.91;18.30
39411;BME280;26579;43.238;23.124;2023-02-03T11:16:18;97464.34;;;14.38;19.43
39411;BME280;26579;43.238;23.124;2023-02-03T11:18:58;97469.28;;;14.22;18.92
39411;BME280;26579;43.238;23.124;2023-02-03T11:21:28;97455.81;;;13.76;20.58
39411;BME280;26579;43.238;23.124;2023-02-03T11:24:05;97462.75;;;13.97;19.71
39411;BME280;26579;43.238;23.124;2023-02-03T11:26:39;97462.06;;;14.04;21.47
39411;BME280;26579;43.238;23.124;2023-02-03T11:31:51;97465.97;;;13.70;21.62
39411;BME280;26579;43.238;23.124;2023-02-03T11:34:25;97469.06;;;13.54;21.95
39411;BME280;26579;43.238;23.124;2023-02-03T11:36:52;97477.25;;;13.40;21.53
39411;BME280;26579;43.238;23.124;2023-02-03T11:41:47;97468.16;;;13.34;22.23
39411;BME280;26579;43.238;23.124;2023-02-03T11:44:19;97462.03;;;13.45;22.22
39411;BME280;26579;43.238;23.124;2023-02-03T11:46:49;97478.25;;;13.39;21.80
39411;BME280;26579;43.238;23.124;2023-02-03T11:52:31;97481.06;;;11.86;23.73
39411;BME280;26579;43.238;23.124;2023-02-03T11:55:20;97484.63;;;11.73;24.07
39411;BME280;26579;43.238;23.124;2023-02-03T11:58:01;97488.88;;;11.29;24.00
39411;BME280;26579;43.238;23.124;2023-02-03T12:11:23;97479.03;;;11.44;24.14
39411;BME280;26579;43.238;23.124;2023-02-03T12:27:37;97459.94;;;11.66;21.93
39411;BME280;26579;43.238;23.124;2023-02-03T12:30:13;97458.66;;;11.94;22.26
39411;BME280;26579;43.238;23.124;2023-02-03T12:32:47;97452.31;;;12.19;22.82
39411;BME280;26579;43.238;23.124;2023-02-03T12:35:16;97446.94;;;12.21;21.63
39411;BME280;26579;43.238;23.124;2023-02-03T12:40:49;97430.28;;;12.01;21.79
39411;BME280;26579;43.238;23.124;2023-02-03T12:46:14;97423.88;;;11.83;22.33
39411;BME280;26579;43.238;23.124;2023-02-03T12:51:37;97428.63;;;11.77;22.52
39411;BME280;26579;43.238;23.124;2023-02-03T12:55:19;97421.28;;;11.71;23.19
39411;BME280;26579;43.238;23.124;2023-02-03T13:03:41;97397.16;;;11.24;23.29
39411;BME280;26579;43.238;23.124;2023-02-03T13:11:50;97402.13;;;11.50;22.91
39411;BME280;26579;43.238;23.124;2023-02-03T13:16:50;97391.53;;;11.85;23.70
39411;BME280;26579;43.238;23.124;2023-02-03T13:19:20;97395.47;;;11.57;23.51
39411;BME280;26579;43.238;23.124;2023-02-03T13:21:49;97405.91;;;11.46;23.29
39411;BME280;26579;43.238;23.124;2023-02-03T13:24:16;97415.75;;;11.20;22.88
39411;BME280;26579;43.238;23.124;2023-02-03T13:27:01;97401.16;;;10.95;23.42
39411;BME280;26579;43.238;23.124;2023-02-03T13:29:52;97402.78;;;10.84;23.61
39411;BME280;26579;43.238;23.124;2023-02-03T13:35:30;97408.81;;;10.27;24.67
39411;BME280;26579;43.238;23.124;2023-02-03T13:41:15;97405.25;;;10.04;25.57
39411;BME280;26579;43.238;23.124;2023-02-03T13:43:49;97418.25;;;10.28;24.89
39411;BME280;26579;43.238;23.124;2023-02-03T13:46:31;97417.50;;;10.26;24.95
39411;BME280;26579;43.238;23.124;2023-02-03T13:49:02;97411.13;;;10.54;25.23
39411;BME280;26579;43.238;23.124;2023-02-03T13:51:44;97409.41;;;10.77;25.17
39411;BME280;26579;43.238;23.124;2023-02-03T13:54:26;97398.56;;;10.95;24.53
39411;BME280;26579;43.238;23.124;2023-02-03T13:57:04;97391.38;;;10.52;25.28
39411;BME280;26579;43.238;23.124;2023-02-03T14:07:31;97407.16;;;9.52;26.47
39411;BME280;26579;43.238;23.124;2023-02-03T14:12:54;97397.44;;;9.18;27.11
39411;BME280;26579;43.238;23.124;2023-02-03T14:25:18;97382.72;;;8.80;27.23
39411;BME280;26579;43.238;23.124;2023-02-03T14:27:47;97382.50;;;8.83;27.80
39411;BME280;26579;43.238;23.124;2023-02-03T14:30:23;97378.25;;;8.82;27.41
39411;BME280;26579;43.238;23.124;2023-02-03T14:38:01;97364.00;;;9.00;27.95
39411;BME280;26579;43.238;23.124;2023-02-03T14:40:53;97362.69;;;9.07;27.74
39411;BME280;26579;43.238;23.124;2023-02-03T14:46:57;97344.50;;;9.07;28.07
39411;BME280;26579;43.238;23.124;2023-02-03T14:57:42;97336.59;;;8.96;28.96
39411;BME280;26579;43.238;23.124;2023-02-03T15:07:57;97324.53;;;8.95;31.90
39411;BME280;26579;43.238;23.124;2023-02-03T15:10:40;97329.84;;;8.81;31.40
39411;BME280;26579;43.238;23.124;2023-02-03T15:13:25;97333.38;;;8.93;30.88
39411;BME280;26579;43.238;23.124;2023-02-03T15:15:57;97323.19;;;8.90;29.44
39411;BME280;26579;43.238;23.124;2023-02-03T15:20:54;97316.47;;;8.74;28.05
39411;BME280;26579;43.238;23.124;2023-02-03T15:23:23;97311.41;;;8.73;28.09
39411;BME280;26579;43.238;23.124;2023-02-03T15:28:21;97306.41;;;8.70;30.37
39411;BME280;26579;43.238;23.124;2023-02-03T15:30:58;97309.72;;;8.72;31.15
39411;BME280;26579;43.238;23.124;2023-02-03T15:33:27;97318.25;;;8.61;32.55
39411;BME280;26579;43.238;23.124;2023-02-03T15:35:59;97310.66;;;8.58;30.74
39411;BME280;26579;43.238;23.124;2023-02-03T15:38:30;97309.00;;;8.44;31.27
39411;BME280;26579;43.238;23.124;2023-02-03T15:41:01;97303.66;;;8.33;33.49
39411;BME280;26579;43.238;23.124;2023-02-03T15:43:46;97313.84;;;8.36;33.52
39411;BME280;26579;43.238;23.124;2023-02-03T15:48:53;97306.88;;;8.36;31.26